Aviation Digital Data Service (ADDS)

Output produced by METARs form (1820 UTC 24 June 2019)
found at http://www.aviationweather.gov/metar/data/
 
Forecast for: RJEC (ASAHIKAWA AIRPOR, JP)
Text: TAF RJEC 241711Z 2418/2600 33008KT 9999 FEW015 SCT030
Forecast period: 1800 UTC 24 June 2019 to 1200 UTC 25 June 2019
Forecast type: FROM: standard forecast or significant change
Winds: from the NNW (330 degrees) at 9 MPH (8 knots; 4.1 m/s)
Visibility: 6 or more miles 10+ km)
Ceiling: at least 12,000 feet AGL
Clouds: few clouds at 1500 feet AGL
scattered clouds at 3000 feet AGL
Weather: no significant weather forecast for this period
Text: BECMG 2512/2515 17008KT
Forecast period: 1200 UTC 25 June 2019 to 0000 UTC 26 June 2019
Forecast type: BECOMING: Conditions expected to become as follows by 1500 UTC 25 June 2019
Winds: from the S (170 degrees) at 9 MPH (8 knots; 4.1 m/s)
Visibility: 6 or more miles 10+ km)
Ceiling: at least 12,000 feet AGL
Clouds: few clouds at 1500 feet AGL
scattered clouds at 3000 feet AGL
Weather: no significant weather forecast for this period